• Join FlightAware (Why Join?)
  • Login
  • US Flag 
08:55PM EDT


 

Airport Tracker/Info


-or-


 

Live Flight TrackerFlight Track Log ✈ UPS37 ✈ 06-Oct-2013 ✈ YSSY / SYD - RKSI / ICN

Flight Track Log - Related Links

Times and Time Zones

All times are in EDT time to prevent confusion due to time zone crossing. See the UPS37 flight status page for this flight to view local times or setup timezone preferences in your user account.

Time Position Orientation Groundspeed Altitude Reporting Facility
EDT Latitude Longitude Course Direction KTS MPH feet Rate Location/Type
04:57AM -33.9590 151.1792 353° North 94 108  Level FlightAware ADS-B (YRAY)
04:57AM -33.9466 151.1761 348° North 170 196 1,020 Level FlightAware ADS-B (YRAY)
04:57AM -33.9327 151.1700 340° North 194 223 700 2,760 Climbing FlightAware ADS-B
04:58AM -33.9131 151.1685 356° North 178 205 1,800 2,580 Climbing FlightAware ADS-B
04:58AM -33.8959 151.1636 347° North 180 207 2,500 2,160 Climbing FlightAware ADS-B (YRAY)
04:58AM -33.8886 151.1588 331° Northwest 176 203 2,900 2,520 Climbing FlightAware ADS-B (YRAY)
04:58AM -33.8819 151.1528 324° Northwest 176 203 3,300 2,280 Climbing FlightAware ADS-B (YRAY)
04:59AM -33.8752 151.1458 319° Northwest 184 212 3,700 1,200 Climbing FlightAware ADS-B (YRAY)
04:59AM -33.8636 151.1321 316° Northwest 224 258 3,900 1,020 Climbing FlightAware ADS-B
04:59AM -33.8479 151.1116 313° West 255 293 4,400 2,520 Climbing FlightAware ADS-B
05:00AM -33.8196 151.0754 313° West 263 303 6,200 3,180 Climbing FlightAware ADS-B
05:00AM -33.8039 151.0550 313° West 269 310 7,200 3,000 Climbing FlightAware ADS-B
05:00AM -33.7871 151.0317 311° West 273 314 8,200 3,180 Climbing FlightAware ADS-B
05:01AM -33.7720 151.0088 308° West 274 315 9,400 3,120 Climbing FlightAware ADS-B
05:01AM -33.7470 150.9720 309° West 275 316 10,900 2,880 Climbing FlightAware
05:01AM -33.7410 150.9637 311° West 290 334 11,200 1,860 Climbing FlightAware ADS-B
05:02AM -33.6997 150.9061 311° West 327 376 12,500 1,560 Climbing FlightAware ADS-B
05:03AM -33.6630 150.8583 311° West 331 381 13,300 1,680 Climbing Aus ATC (RADAR)
05:03AM -33.6574 150.8515 311° West 359 413 13,600 1,620 Climbing FlightAware ADS-B
05:03AM -33.6095 150.7947 315° West 393 452 14,500 1,500 Climbing FlightAware ADS-B
05:04AM -33.5802 150.7737 329° Northwest 407 468 15,100 1,920 Climbing FlightAware ADS-B
05:04AM -33.5427 150.7596 342° North 420 483 15,800 1,560 Climbing FlightAware ADS-B
05:05AM -33.4835 150.7416 342° North 413 475 16,400 1,860 Climbing Aus ATC (RADAR)
05:05AM -33.4617 150.7350 342° North 439 505 17,100 2,460 Climbing FlightAware ADS-B
05:05AM -33.4043 150.7176 346° North 449 517 18,100 1,920 Climbing FlightAware ADS-B
05:06AM -33.3405 150.6987 346° North 448 516 19,100 2,040 Climbing Aus ATC (RADAR)
05:06AM -33.3086 150.6895 346° North 460 529 19,800 2,100 Climbing FlightAware ADS-B
05:07AM -33.2260 150.6650 346° North 465 535 21,100 1,860 Climbing FlightAware
05:07AM -33.1570 150.6450 346° North 460 529 22,200 2,040 Climbing FlightAware
05:08AM -33.1347 150.6383 346° North 473 544 22,600 1,680 Climbing FlightAware ADS-B
05:08AM -33.0650 150.6180 346° North 482 555 23,300 1,320 Climbing FlightAware
05:09AM -32.9970 150.5980 346° North 483 556 24,000 1,500 Climbing FlightAware
05:09AM -32.9180 150.5740 346° North 496 571 25,000 1,440 Climbing FlightAware
05:09AM -32.9049 150.5704 346° North 482 555 25,000 1,680 Level Aus ATC (RADAR)
05:10AM -32.8490 150.5540 346° North 497 572 26,000 1,920 Climbing FlightAware
05:10AM -32.8352 150.5497 346° North 497 572 26,000 2,520 Level Aus ATC (RADAR)
05:10AM -32.7650 150.5290 346° North 481 554 27,500 1,920 Climbing FlightAware
05:11AM -32.7100 150.5130 346° North 490 564 28,200 1,440 Climbing FlightAware
05:11AM -32.6080 150.4830 346° North 498 573 29,200 2,040 Climbing FlightAware
05:12AM -32.5310 150.4610 346° North 487 560 30,600 2,100 Climbing FlightAware
05:12AM -32.5256 150.4591 346° North 489 563 30,500 1,140 Descending Aus ATC (RADAR)
05:13AM -32.4420 150.4350 346° North 493 567 31,400 1,260 Climbing FlightAware
05:13AM -32.3550 150.4100 346° North 492 566 32,200 1,200 Climbing FlightAware
05:14AM -32.2880 150.3900 346° North 495 570 32,800 1,020 Climbing FlightAware
05:15AM -32.2040 150.3660 346° North 498 573 33,400 900 Climbing FlightAware
05:15AM -32.1110 150.3390 346° North 499 574 34,000 480 Climbing FlightAware
05:16AM -32.0280 150.3150 346° North 493 567 34,000  Level FlightAware
05:16AM -31.9620 150.2960 346° North 484 557 34,000  Level FlightAware
05:17AM -31.8750 150.2700 346° North 495 570 34,000  Level FlightAware
05:18AM -31.7980 150.2480 346° North 495 570 34,000  Level FlightAware
05:18AM -31.7190 150.2260 347° North 494 568 34,000  Level FlightAware
05:19AM -31.6310 150.2010 346° North 493 567 34,000  Level FlightAware
05:19AM -31.5520 150.1780 346° North 494 568 34,000  Level FlightAware
05:20AM -31.4760 150.1560 346° North 494 568 34,000  Level FlightAware
05:21AM -31.3950 150.1330 346° North 496 571 34,000  Level FlightAware
05:21AM -31.3190 150.1120 347° North 497 572 34,000  Level FlightAware
05:22AM -31.2380 150.0880 346° North 498 573 34,000  Level FlightAware
05:22AM -31.1700 150.0690 347° North 500 575 34,000  Level FlightAware
05:23AM -31.0830 150.0450 347° North 493 567 34,000  Level FlightAware
05:23AM -31.0000 150.0210 346° North 493 567 34,000  Level FlightAware
05:24AM -30.9245 149.9999 346° North 495 570 34,000  Level Aus ATC (RADAR)
05:24AM -30.9300 150.0010 346° North 493 567 34,000  Level FlightAware
05:25AM -30.8440 149.9770 347° North 651 749 34,000  Level FlightAware
05:25AM -30.7530 149.9510 346° North 496 571 34,000  Level FlightAware
05:26AM -30.6850 149.9310 346° North 496 571 34,000  Level FlightAware
05:27AM -30.6170 149.9120 346° North 496 571 34,000 -120 Level FlightAware
05:27AM -30.4934 149.8789 346° North 499 574 33,900  Descending Aus ATC (RADAR)
05:27AM -30.5470 149.8910 346° North 496 571 34,000 120 Climbing FlightAware
05:28AM -30.4790 149.8720 346° North 496 571 34,000  Level FlightAware
05:28AM -30.4110 149.8520 346° North 496 571 34,000  Level FlightAware
05:29AM -30.3420 149.8320 346° North 496 571 34,000  Level FlightAware
05:30AM -30.2740 149.8130 346° North 496 571 34,000 -120 Level FlightAware
05:30AM -30.0780 149.7785 346° North 508 585 33,900  Descending Aus ATC (RADAR)
05:30AM -30.2040 149.7920 346° North 496 571 34,000 120 Climbing FlightAware
05:31AM -30.1360 149.7730 346° North 496 571 34,000  Level FlightAware
05:31AM -30.0680 149.7530 346° North 496 571 34,000  Level FlightAware
05:32AM -30.0000 149.7340 346° North 496 571 34,000  Level FlightAware
05:33AM -29.9320 149.7140 346° North 496 571 34,000  Level FlightAware
05:33AM -29.8620 149.6940 346° North 496 571 34,000  Level FlightAware
05:34AM -29.7970 149.6750 346° North 496 571 34,000  Level FlightAware
05:34AM -29.7290 149.6560 346° North 496 571 34,000 -120 Level FlightAware
05:35AM -29.3810 149.6294 346° North 517 595 33,900  Descending Aus ATC (RADAR)
05:36AM -29.2416 149.6002 350° North 517 595 34,000  Climbing Aus ATC (RADAR)
05:37AM -29.1555 149.5826 350° North 521 600 33,900 -120 Descending Aus ATC (RADAR)
05:38AM -29.0263 149.5546 349° North 518 596 33,900  Level Aus ATC (RADAR)
05:38AM -28.9902 149.5474 350° North 520 598 33,900  Level Aus ATC (RADAR)
05:38AM -28.9071 149.5304 350° North 521 600 33,900  Level Aus ATC (RADAR)
05:39AM -28.7563 149.4983 349° North 516 594 33,900  Level Aus ATC (RADAR)
05:40AM -28.7303 149.4926 349° North 518 596 33,900  Level Aus ATC (RADAR)
05:40AM -28.6483 149.4746 349° North 517 595 33,900  Level Aus ATC (RADAR)
05:41AM -28.5051 149.4459 350° North 521 600 33,900  Level Aus ATC (RADAR)
05:42AM -28.4131 149.4269 350° North 517 595 33,900  Level Aus ATC (RADAR)
05:43AM -28.2799 149.3986 349° North 520 598 33,900  Level Aus ATC (RADAR)
05:43AM -28.1967 149.3808 349° North 522 601 33,900  Level Aus ATC (RADAR)
05:45AM -28.0376 149.3248 343° North 523 602 33,900  Level Aus ATC (RADAR)
05:45AM -28.0047 149.3115 340° North 519 597 33,900  Level Aus ATC (RADAR)
05:45AM -27.9277 149.2808 341° North 513 590 33,900  Level Aus ATC (RADAR)
05:46AM -27.8053 149.2334 341° North 511 588 33,900  Level Aus ATC (RADAR)
05:47AM -27.7259 149.2046 342° North 513 590 33,900  Level Aus ATC (RADAR)
05:48AM -27.5895 149.1549 342° North 515 593 33,900  Level Aus ATC (RADAR)
05:48AM -27.5559 149.1419 341° North 516 594 33,900  Level Aus ATC (RADAR)
05:49AM -27.4774 149.1166 344° North 517 595 33,900  Level Aus ATC (RADAR)
05:50AM -27.3287 149.0628 342° North 518 596 33,900 60 Level Aus ATC (RADAR)
05:50AM -27.2944 149.0506 342° North 516 594 34,000 60 Climbing Aus ATC (RADAR)
05:51AM -27.2028 149.0172 342° North 518 596 34,000 -120 Level Aus ATC (RADAR)
05:52AM -27.0891 148.9762 342° North 514 592 33,900 -120 Descending Aus ATC (RADAR)
05:52AM -27.0100 148.9476 342° North 512 589 33,900  Level Aus ATC (RADAR)
05:53AM -26.8624 148.8948 342° North 513 590 33,900  Level Aus ATC (RADAR)
05:54AM -26.7724 148.8625 342° North 509 586 34,000  Climbing Aus ATC (RADAR)
05:55AM -26.6256 148.8101 342° North 511 588 34,000  Level Aus ATC (RADAR)
05:55AM -26.5912 148.7980 342° North 513 590 34,000  Level Aus ATC (RADAR)
05:56AM -26.5122 148.7704 343° North 510 587 34,000 60 Level Aus ATC (RADAR)
05:57AM -26.3712 148.7305 346° North 520 598 34,100  Climbing Aus ATC (RADAR)
05:57AM -26.3009 148.7107 346° North 521 600 34,000 -120 Descending Aus ATC (RADAR)
05:58AM -26.1727 148.6727 345° North 517 595 34,000  Level Aus ATC (RADAR)
05:59AM -26.0917 148.6489 345° North 516 594 34,000  Level Aus ATC (RADAR)
06:00AM -25.9181 148.5984 345° North 515 593 34,000  Level Aus ATC (RADAR)
06:00AM -25.8713 148.5849 345° North 519 597 34,000  Level Aus ATC (RADAR)
06:01AM -25.7904 148.5613 345° North 516 594 34,000  Level Aus ATC (RADAR)
06:02AM -25.6745 148.5279 345° North 517 595 34,000  Level Aus ATC (RADAR)
06:02AM -25.5990 148.5060 345° North 520 598 34,000  Level FlightAware
06:02AM -25.5818 148.5011 345° North 516 594 34,000 120 Level Aus ATC (RADAR)
06:03AM -25.5060 148.4790 345° North 521 600 34,100 60 Climbing FlightAware
06:04AM -25.4360 148.4590 346° North 521 600 34,100  Level FlightAware
06:04AM -25.3530 148.4350 345° North 520 598 34,100  Level FlightAware
06:05AM -25.2800 148.4140 345° North 519 597 34,100 -120 Level FlightAware
06:05AM -25.1850 148.3870 346° North 517 595 34,000 -120 Descending FlightAware
06:06AM -25.1040 148.3630 345° North 514 592 34,000  Level FlightAware
06:07AM -25.0100 148.3360 345° North 514 592 34,000  Level FlightAware
06:07AM -24.9325 148.3141 345° North 513 590 34,000  Level Aus ATC (RADAR)
06:07AM -24.9430 148.3170 345° North 514 592 34,000  Level FlightAware
06:08AM -24.8500 148.2910 346° North 515 593 34,000  Level FlightAware
06:08AM -24.7730 148.2690 345° North 515 593 34,000  Level FlightAware
06:09AM -24.6750 148.2410 345° North 516 594 34,000 60 Level FlightAware
06:10AM -24.5890 148.2160 345° North 516 594 34,100 60 Climbing FlightAware
06:10AM -24.5160 148.1950 345° North 515 593 34,100 -180 Level FlightAware
06:10AM -24.4932 148.1895 345° North 516 594 34,000 -180 Descending Aus ATC (RADAR)
06:11AM -24.4200 148.1680 346° North 516 594 34,000  Level FlightAware
06:11AM -24.3370 148.1450 346° North 517 595 34,000  Level FlightAware
06:12AM -24.2503 148.1208 346° North 515 593 34,000  Level Aus ATC (RADAR)
06:12AM -24.2430 148.1180 346° North 516 594 34,000  Level FlightAware
06:13AM -24.1540 148.0930 346° North 516 594 34,000  Level FlightAware
06:13AM -24.0570 148.0660 346° North 516 594 34,000  Level FlightAware
06:14AM -23.9900 148.0470 345° North 516 594 34,000  Level FlightAware
06:15AM -23.9130 148.0250 345° North 516 594 34,000  Level FlightAware
06:15AM -23.8190 147.9990 346° North 515 593 34,000  Level FlightAware
06:16AM -23.7420 147.9770 345° North 515 593 34,000  Level FlightAware
06:16AM -23.6604 147.9546 345° North 515 593 34,000  Level Aus ATC (RADAR)
06:16AM -23.6680 147.9560 345° North 515 593 34,000  Level FlightAware
06:17AM -23.6010 147.9380 346° North 516 594 34,000  Level FlightAware
06:17AM -23.5010 147.9100 346° North 517 595 34,000  Level FlightAware
06:18AM -23.4070 147.8830 345° North 519 597 34,000  Level FlightAware
06:19AM -23.3236 147.8607 345° North 521 600 34,000  Level Aus ATC (RADAR)
06:19AM -23.3360 147.8630 345° North 521 600 34,000 120 Level FlightAware
06:19AM -23.2450 147.8380 346° North 522 601 34,100 60 Climbing FlightAware
06:20AM -23.1480 147.8110 346° North 522 601 34,100 -120 Level FlightAware
06:21AM -23.0544 147.7859 346° North 522 601 34,000  Descending Aus ATC (RADAR)
06:21AM -23.0470 147.7830 346° North 518 596 34,100  Climbing FlightAware
06:21AM -22.9710 147.7620 346° North 516 594 34,000 -120 Descending FlightAware
06:22AM -22.8780 147.7360 346° North 514 592 34,000  Level FlightAware
06:23AM -22.7850 147.7090 345° North 510 587 34,000  Level FlightAware
06:23AM -22.6910 147.6810 345° North 507 583 34,000  Level FlightAware
06:24AM -22.6210 147.6600 345° North 505 581 34,000  Level FlightAware
06:24AM -22.5460 147.6370 344° North 505 581 34,000  Level FlightAware
06:25AM -22.4501 147.6103 344° North 506 582 34,000  Level Aus ATC (RADAR)
06:25AM -22.4550 147.6100 344° North 507 583 34,000  Level FlightAware
06:26AM -22.3820 147.5890 345° North 508 585 34,000  Level FlightAware
06:26AM -22.3080 147.5670 345° North 509 586 34,000 60 Level FlightAware
06:27AM -22.2150 147.5400 345° North 510 587 34,100 60 Climbing FlightAware
06:27AM -22.1410 147.5180 345° North 511 588 34,100  Level FlightAware
06:28AM -22.0519 147.4924 345° North 512 589 34,100  Level Aus ATC (RADAR)
06:28AM -22.0590 147.4940 345° North 511 588 34,100  Level FlightAware
06:29AM -21.9860 147.4720 344° North 512 589 34,100 -120 Level FlightAware
06:29AM -21.8915 147.4452 344° North 510 587 34,000 -180 Descending Aus ATC (RADAR)
06:29AM -21.9010 147.4470 344° North 515 593 34,000  Level FlightAware
06:30AM -21.8270 147.4250 345° North 517 595 34,000  Level FlightAware
06:30AM -21.7340 147.3980 345° North 518 596 34,000 60 Level FlightAware
06:31AM -21.6570 147.3760 345° North 517 595 34,100 60 Climbing FlightAware
06:32AM -21.5580 147.3470 345° North 515 593 34,100 -120 Level FlightAware
06:32AM -21.4534 147.3170 345° North 509 586 34,000 -180 Descending Aus ATC (RADAR)
06:32AM -21.4560 147.3170 345° North 512 589 34,000  Level FlightAware
06:33AM -21.3980 147.2990 344° North 512 589 34,000  Level FlightAware
06:34AM -21.2850 147.2660 345° North 509 586 34,000  Level FlightAware
06:34AM -21.2160 147.2450 344° North 509 586 34,000  Level FlightAware
06:35AM -21.0900 147.2100 345° North 504 580 34,000  Level FlightAware
06:36AM -21.0080 147.1860 345° North 503 579 34,000  Level FlightAware
06:36AM -20.9370 147.1660 345° North 502 578 34,000  Level FlightAware
06:36AM -20.9322 147.1655 345° North 503 579 34,000  Level Aus ATC (RADAR)
06:37AM -20.8500 147.1410 345° North 503 579 34,000  Level FlightAware
06:37AM -20.7790 147.1200 345° North 504 580 34,000  Level FlightAware
06:38AM -20.6990 147.0970 345° North 506 582 34,000  Level FlightAware
06:38AM -20.6200 147.0740 345° North 507 583 34,000 60 Level FlightAware
06:39AM -20.5340 147.0490 345° North 508 585 34,100 60 Climbing FlightAware
06:40AM -20.4600 147.0280 345° North 510 587 34,100  Level FlightAware
06:40AM -20.3790 147.0050 345° North 512 589 34,100  Level FlightAware
06:41AM -20.2950 146.9800 344° North 512 589 34,100 -120 Level FlightAware
06:41AM -20.2164 146.9596 344° North 513 590 34,000  Descending Aus ATC (RADAR)
06:41AM -20.2130 146.9570 344° North 514 592 34,100 120 Climbing FlightAware
06:42AM -20.1400 146.9360 345° North 514 592 34,100  Level FlightAware
06:43AM -20.0520 146.9110 345° North 513 590 34,100  Level FlightAware
06:43AM -19.9740 146.8890 345° North 511 588 34,100 -120 Level FlightAware
06:44AM -19.8950 146.8660 345° North 510 587 34,000 -120 Descending FlightAware
06:44AM -19.8180 146.8440 345° North 509 586 34,000  Level FlightAware
06:45AM -19.7400 146.8220 345° North 509 586 34,000  Level FlightAware
06:45AM -19.6540 146.7970 345° North 508 585 34,000  Level FlightAware
06:46AM -19.5780 146.7760 345° North 508 585 34,000  Level FlightAware
06:47AM -19.4950 146.7520 345° North 508 585 34,000  Level FlightAware
06:47AM -19.4270 146.7330 345° North 509 586 34,000  Level FlightAware
06:48AM -19.3340 146.7060 345° North 510 587 34,000 60 Level FlightAware
06:48AM -19.2560 146.6865 345° North 512 589 34,100 120 Climbing Aus ATC (RADAR)
06:48AM -19.2460 146.6810 345° North 509 586 34,100  Level FlightAware
06:49AM -19.1600 146.6570 345° North 509 586 34,100  Level FlightAware
06:50AM -19.1010 146.6400 345° North 509 586 34,100 -120 Level FlightAware
06:50AM -19.0000 146.6120 345° North 510 587 34,000 -120 Descending FlightAware
06:51AM -18.9160 146.5880 345° North 510 587 34,000  Level FlightAware
06:51AM -18.8480 146.5690 345° North 509 586 34,000  Level FlightAware
06:52AM -18.7570 146.5430 345° North 509 586 34,000  Level FlightAware
06:53AM -18.6840 146.5230 345° North 509 586 34,000  Level FlightAware
06:53AM -18.6020 146.5000 345° North 509 586 34,000  Level FlightAware
06:54AM -18.5210 146.4770 345° North 509 586 34,000  Level FlightAware
06:54AM -18.4450 146.4560 345° North 509 586 34,000  Level FlightAware
06:55AM -18.3620 146.4320 345° North 508 585 34,000  Level FlightAware
06:55AM -18.2790 146.4090 345° North 506 582 34,000  Level FlightAware
06:56AM -18.2060 146.3890 345° North 505 581 34,000  Level FlightAware
06:57AM -18.1270 146.3670 345° North 505 581 34,000  Level FlightAware
06:57AM -18.0530 146.3460 345° North 505 581 34,000  Level FlightAware
06:58AM -17.9640 146.3210 345° North 497 572 34,000  Level FlightAware
06:58AM -17.8980 146.3030 345° North 497 572 34,000  Level FlightAware
06:59AM -17.8160 146.2800 345° North 497 572 34,000  Level FlightAware
07:00AM -17.7222 146.2549 345° North 504 580 34,000  Level Aus ATC (RADAR)
07:00AM -17.7280 146.2550 345° North 497 572 34,000  Level FlightAware
07:00AM -17.6470 146.2330 345° North 498 573 34,000  Level FlightAware
07:01AM -17.5810 146.2150 345° North 497 572 34,000 60 Level FlightAware
07:01AM -17.5000 146.1920 345° North 497 572 34,100 60 Climbing FlightAware
07:02AM -17.4080 146.1670 345° North 496 571 34,100 -120 Level FlightAware
07:02AM -17.3410 146.1480 345° North 497 572 34,000 -120 Descending FlightAware
07:03AM -17.2370 146.1190 345° North 498 573 34,000  Level FlightAware
07:04AM -17.1580 146.0970 345° North 496 571 34,000  Level FlightAware
07:04AM -17.0780 146.0760 346° North 502 578 34,000  Level FlightAware
07:05AM -17.0120 146.0570 346° North 496 571 34,000 180 Level FlightAware
07:05AM -16.9999 146.0542 346° North 492 566 34,100  Climbing Aus ATC (RADAR)
07:05AM -16.9207 146.0322 346° North 500 575 34,000 -180 Descending Aus ATC (RADAR)
07:06AM -16.9100 146.0290 346° North 497 572 34,000  Level FlightAware
07:06AM -16.8300 146.0070 345° North 497 572 34,000  Level FlightAware
07:07AM -16.7510 145.9850 345° North 496 571 34,000  Level FlightAware
07:07AM -16.7403 145.9824 345° North 495 570 34,000  Level Aus ATC (RADAR)
07:07AM -16.6720 145.9640 345° North 497 572 34,000  Level FlightAware
07:07AM -16.6607 145.9606 345° North 502 578 34,000  Level Aus ATC (RADAR)
07:08AM -16.5930 145.9420 345° North 498 573 34,000  Level FlightAware
07:08AM -16.5138 145.9203 345° North 496 571 34,000  Level Aus ATC (RADAR)
07:09AM -16.5020 145.9170 345° North 499 574 34,000  Level FlightAware
07:09AM -16.4340 145.8980 345° North 499 574 34,000  Level FlightAware
07:10AM -16.3550 145.8770 346° North 500 575 34,000  Level FlightAware
07:10AM -16.2610 145.8510 345° North 500 575 34,000  Level FlightAware
07:11AM -16.1940 145.8320 345° North 501 577 34,000  Level FlightAware
07:11AM -16.1600 145.8230 346° North 501 577 34,000  Level FlightAware
07:12AM -16.0585 145.7944 346° North 506 582 34,000  Level Aus ATC (RADAR)
07:12AM -16.0249 145.7860 346° North 500 575 34,000  Level Aus ATC (RADAR)
07:12AM -16.0090 145.7820 346° North 511 588 34,000  Level FlightAware
07:13AM -15.9380 145.7630 346° North 512 589 34,000 60 Level FlightAware
07:13AM -15.8291 145.7323 346° North 505 581 34,100  Climbing Aus ATC (RADAR)
07:14AM -15.8240 145.7310 346° North 513 590 34,000 -180 Descending FlightAware
07:14AM -15.7540 145.7120 345° North 513 590 34,000  Level FlightAware
07:15AM -15.6840 145.6920 345° North 513 590 34,000  Level FlightAware
07:15AM -15.6130 145.6730 346° North 513 590 34,000  Level FlightAware
07:16AM -15.5430 145.6530 345° North 513 590 34,000  Level FlightAware
07:17AM -15.4710 145.6330 345° North 513 590 34,000  Level FlightAware
07:17AM -15.4010 145.6130 345° North 513 590 34,000  Level FlightAware
07:18AM -15.3310 145.5940 345° North 513 590 34,000 60 Level FlightAware
07:18AM -15.1508 145.5486 345° North 504 580 34,100  Climbing Aus ATC (RADAR)
07:18AM -15.2610 145.5750 345° North 513 590 34,000 -180 Descending FlightAware
07:19AM -15.1910 145.5550 345° North 513 590 34,000  Level FlightAware
07:20AM -15.1200 145.5360 346° North 513 590 34,000  Level FlightAware
07:20AM -14.9013 145.4814 346° North 500 575 34,000  Level Aus ATC (RADAR)
07:20AM -15.0500 145.5160 346° North 513 590 34,000  Level FlightAware
07:21AM -14.9780 145.4960 345° North 513 590 34,000  Level FlightAware
07:21AM -14.9080 145.4770 345° North 513 590 34,000  Level FlightAware
07:22AM -14.6649 145.4180 345° North 498 573 34,000  Level Aus ATC (RADAR)
07:22AM -14.8380 145.4570 345° North 513 590 34,000  Level FlightAware
07:23AM -14.5860 145.3950 345° North 501 577 34,000  Level Aus ATC (RADAR)
07:23AM -14.7680 145.4380 345° North 513 590 34,000 60 Level FlightAware
07:23AM -14.4620 145.3627 345° North 498 573 34,100  Climbing Aus ATC (RADAR)
07:24AM -14.3942 145.3444 345° North 499 574 34,000 -120 Descending Aus ATC (RADAR)
07:25AM -14.2659 145.3211 350° North 507 583 34,000 60 Level Aus ATC (RADAR)
07:25AM -14.2309 145.3158 352° North 506 582 34,100 120 Climbing Aus ATC (RADAR)
07:26AM -14.1491 145.3038 352° North 505 581 34,100  Level Aus ATC (RADAR)
07:27AM -13.9857 145.2774 351° North 506 582 34,100  Level Aus ATC (RADAR)
07:27AM -13.9390 145.2703 352° North 504 580 34,100 -120 Level Aus ATC (RADAR)
07:28AM -13.8104 145.2491 351° North 505 581 34,000 -120 Descending Aus ATC (RADAR)
07:29AM -13.7405 145.2373 351° North 504 580 34,000  Level Aus ATC (RADAR)
07:30AM -13.6124 145.2187 352° North 503 579 34,000  Level Aus ATC (RADAR)
07:30AM -13.5893 145.2148 351° North 502 578 34,000 120 Level Aus ATC (RADAR)
07:30AM -13.5076 145.2009 351° North 503 579 34,100 60 Climbing Aus ATC (RADAR)
07:31AM -13.3800 145.1824 352° North 500 575 34,100 -120 Level Aus ATC (RADAR)
07:31AM -13.3566 145.1789 352° North 501 577 34,000 -120 Descending Aus ATC (RADAR)
07:32AM -13.2281 145.1654 354° North 500 575 34,000  Level Aus ATC (RADAR)
07:33AM -13.1249 145.1429 348° North 500 575 34,000  Level Aus ATC (RADAR)
07:34AM -13.0557 145.1315 351° North 498 573 34,000  Level Aus ATC (RADAR)
07:34AM -12.9288 145.1112 351° North 497 572 34,000  Level Aus ATC (RADAR)
07:35AM -12.9057 145.1078 352° North 496 571 34,000 -180 Level Aus ATC (RADAR)
07:35AM -12.8252 145.0946 351° North 496 571 33,900 -120 Descending Aus ATC (RADAR)
07:36AM -12.7683 145.0855 351° North 496 571 33,900  Level Aus ATC (RADAR)
07:38AM -12.4802 145.0387 355° North 36,000  Climbing Aus ATC (Calculated)
07:40AM -12.2774 145.0059 351° North  Level FlightAware Approximate
07:41AM -12.1520 144.9856 351° North  Level FlightAware Approximate
07:41AM -12.1201 144.9804 355° North 36,000  Level Aus ATC (Calculated)
07:41AM -12.0600 144.9707 355° North 36,000  Level Aus ATC (Calculated)
07:43AM -11.8928 144.9437 351° North  Level FlightAware Approximate
07:44AM -12.0182 144.9639 171° South  Level FlightAware Approximate
07:45AM -11.8928 144.9437 351° North  Level FlightAware Approximate
07:45AM -11.4809 144.8792 355° North 36,000  Level Aus ATC (Calculated)
07:46AM -11.8966 144.9447 351° North  Level FlightAware Approximate
07:47AM -11.3052 144.8515 351° North  Level FlightAware Approximate
07:48AM -11.1797 144.8318 351° North  Level FlightAware Approximate
07:49AM -11.0542 144.8121 351° North  Level FlightAware Approximate
07:50AM -10.9287 144.7923 351° North  Level FlightAware Approximate
07:51AM -10.8032 144.7726 351° North  Level FlightAware Approximate
07:52AM -10.6777 144.7530 351° North  Level FlightAware Approximate
07:53AM -10.5522 144.7333 351° North  Level FlightAware Approximate
07:54AM -10.4267 144.7137 351° North  Level FlightAware Approximate
07:55AM -10.3012 144.6940 351° North  Level FlightAware Approximate
07:56AM -10.1757 144.6744 351° North  Level FlightAware Approximate
07:57AM -10.0502 144.6548 351° North  Level FlightAware Approximate
07:58AM -9.9247 144.6352 351° North  Level FlightAware Approximate
07:59AM -9.7992 144.6156 351° North  Level FlightAware Approximate
08:00AM -9.6737 144.5961 351° North  Level FlightAware Approximate
08:01AM -9.5482 144.5765 351° North  Level FlightAware Approximate
08:02AM -9.4227 144.5570 351° North  Level FlightAware Approximate
08:02AM -9.0892 144.5052 356° North 36,000  Level Aus ATC (Calculated)
08:04AM -8.8758 144.4721 351° North  Level FlightAware Approximate
08:05AM -8.7503 144.4526 351° North  Level FlightAware Approximate
08:06AM -8.6248 144.4332 351° North  Level FlightAware Approximate
08:07AM -8.4992 144.4138 351° North  Level FlightAware Approximate
08:08AM -8.3737 144.3943 351° North  Level FlightAware Approximate
08:09AM -8.2482 144.3749 351° North  Level FlightAware Approximate
08:10AM -8.1227 144.3555 351° North  Level FlightAware Approximate
08:11AM -7.9971 144.3362 351° North  Level FlightAware Approximate
08:12AM -7.8716 144.3168 351° North  Level FlightAware Approximate
08:13AM -7.7461 144.2974 351° North  Level FlightAware Approximate
08:14AM -7.6206 144.2781 351° North  Level FlightAware Approximate
08:15AM -7.4951 144.2588 351° North  Level FlightAware Approximate
08:16AM -7.3695 144.2394 351° North  Level FlightAware Approximate
08:17AM -7.4951 144.2588 171° South  Level FlightAware Approximate
08:18AM -7.3695 144.2394 351° North  Level FlightAware Approximate
08:19AM -7.4951 144.2588 171° South  Level FlightAware Approximate
08:20AM -7.3695 144.2394 351° North  Level FlightAware Approximate
08:21AM -7.4951 144.2588 171° South  Level FlightAware Approximate
08:22AM -7.3650 144.2460 358° North  Level FlightAware Approximate
08:23AM -7.2381 144.2417 358° North  Level FlightAware Approximate
08:24AM -7.1112 144.2375 358° North  Level FlightAware Approximate
08:25AM -6.9843 144.2332 358° North  Level FlightAware Approximate
08:26AM -6.8574 144.2289 358° North  Level FlightAware Approximate
08:27AM -6.7305 144.2246 358° North  Level FlightAware Approximate
08:28AM -6.6036 144.2203 358° North  Level FlightAware Approximate
08:29AM -6.4767 144.2161 358° North  Level FlightAware Approximate
08:30AM -6.3497 144.2118 358° North  Level FlightAware Approximate
08:31AM -6.2228 144.2075 358° North  Level FlightAware Approximate
08:32AM -6.0959 144.2033 358° North  Level FlightAware Approximate
08:33AM -5.9690 144.1990 358° North  Level FlightAware Approximate
08:34AM -5.8421 144.1947 358° North  Level FlightAware Approximate
08:35AM -5.7152 144.1905 358° North  Level FlightAware Approximate
08:36AM -5.5883 144.1862 358° North  Level FlightAware Approximate
08:37AM -5.4614 144.1820 358° North  Level FlightAware Approximate
08:38AM -5.3345 144.1777 358° North  Level FlightAware Approximate
08:39AM -5.2076 144.1735 358° North  Level FlightAware Approximate
08:40AM -5.0806 144.1692 358° North  Level FlightAware Approximate
08:41AM -4.9537 144.1650 358° North  Level FlightAware Approximate
08:42AM -4.8268 144.1607 358° North  Level FlightAware Approximate
08:43AM -4.6999 144.1565 358° North  Level FlightAware Approximate
08:44AM -4.5730 144.1522 358° North  Level FlightAware Approximate
08:45AM -4.4461 144.1480 358° North  Level FlightAware Approximate
08:46AM -4.3192 144.1438 358° North  Level FlightAware Approximate
08:47AM -4.1923 144.1395 358° North  Level FlightAware Approximate
08:48AM -4.0654 144.1353 358° North  Level FlightAware Approximate
08:49AM -3.9385 144.1310 358° North  Level FlightAware Approximate
08:50AM -3.8115 144.1268 358° North  Level FlightAware Approximate
08:51AM -3.6846 144.1226 358° North  Level FlightAware Approximate
08:52AM -3.5577 144.1183 358° North  Level FlightAware Approximate
08:53AM -3.4308 144.1141 358° North  Level FlightAware Approximate
08:54AM -3.3039 144.1099 358° North  Level FlightAware Approximate
08:55AM -3.1770 144.1057 358° North  Level FlightAware Approximate
08:56AM -3.0501 144.1014 358° North  Level FlightAware Approximate
08:57AM -2.9232 144.0972 358° North  Level FlightAware Approximate
08:58AM -2.7963 144.0930 358° North  Level FlightAware Approximate
08:58AM -1.6667 144.0500 358° North 500 575 36,000  Level Oakland Oceanic (ODAPS)
08:59AM -2.6693 144.0887 358° North  Level FlightAware Approximate
09:00AM -2.5424 144.0845 358° North  Level FlightAware Approximate
09:01AM -2.4155 144.0803 358° North  Level FlightAware Approximate
09:02AM -2.2886 144.0761 358° North  Level FlightAware Approximate
09:03AM -2.1617 144.0719 358° North  Level FlightAware Approximate
09:03AM -1.1333 144.0333 358° North 518 596 36,000  Level Oakland Oceanic (ODAPS)
09:04AM -0.8333 144.0250 358° North 500 575 36,000  Level FlightAware Transoceanic
09:05AM -0.6944 144.0208 358° North 500 575 36,000  Level FlightAware Transoceanic
09:06AM -0.5556 144.0167 358° North 500 575 36,000  Level FlightAware Transoceanic
09:07AM -0.4167 144.0125 358° North 500 575 36,000  Level FlightAware Transoceanic
09:07AM -0.5500 144.0167 358° North 500 575 36,000  Level Oakland Oceanic (ODAPS)
09:08AM -0.2778 144.0083 358° North 500 575 36,000  Level FlightAware Transoceanic
09:09AM -0.1417 144.0042 358° North 518 596 36,000  Level FlightAware Transoceanic
09:10AM 0.0000 144.0000 356° North 518 596 36,000  Level FlightAware Transoceanic
09:11AM 0.1351 143.9897 356° North 518 596 36,000  Level FlightAware Transoceanic
09:11AM 0.0000 144.0000 356° North 475 547 36,000  Level Oakland Oceanic (ODAPS)
09:12AM 0.2703 143.9793 356° North 518 596 36,000  Level FlightAware Transoceanic
09:13AM 0.2703 143.9793 356° North 500 575 36,000  Level FlightAware Transoceanic
09:14AM 0.4054 143.9690 356° North 500 575 36,000  Level FlightAware Transoceanic
09:15AM 0.5405 143.9587 356° North 500 575 36,000  Level FlightAware Transoceanic
09:16AM 0.6757 143.9483 356° North 500 575 36,000  Level FlightAware Transoceanic
09:17AM 0.7895 143.9396 356° North 475 547 36,000  Level FlightAware Transoceanic
09:18AM 0.9211 143.9296 356° North 475 547 36,000  Level FlightAware Transoceanic
09:19AM 1.0526 143.9195 356° North 475 547 36,000  Level FlightAware Transoceanic
09:20AM 1.1842 143.9094 356° North 475 547 36,000  Level FlightAware Transoceanic
09:21AM 1.3158 143.8994 356° North 475 547 36,000  Level FlightAware Transoceanic
09:21AM 1.2333 143.9000 356° North 472 543 36,000  Level Oakland Oceanic (ODAPS)
09:22AM 1.4474 143.8893 356° North 475 547 36,000  Level FlightAware Transoceanic
09:23AM 1.5790 143.8792 356° North 475 547 36,000  Level FlightAware Transoceanic
09:24AM 1.7105 143.8692 356° North 475 547 36,000  Level FlightAware Transoceanic
09:25AM 1.8421 143.8591 356° North 475 547 36,000  Level FlightAware Transoceanic
09:26AM 1.9737 143.8490 356° North 475 547 36,000  Level FlightAware Transoceanic
09:27AM 2.0405 143.8394 356° North 472 543 36,000  Level FlightAware Transoceanic
09:28AM 2.1750 143.8293 356° North 472 543 36,000  Level FlightAware Transoceanic
09:29AM 2.3095 143.8192 356° North 472 543 36,000  Level FlightAware Transoceanic
09:30AM 2.4441 143.8091 356° North 472 543 36,000  Level FlightAware Transoceanic
09:31AM 2.5786 143.7990 356° North 472 543 36,000  Level FlightAware Transoceanic
09:32AM 2.7131 143.7889 356° North 472 543 36,000  Level FlightAware Transoceanic
09:33AM 2.8476 143.7788 356° North 472 543 36,000  Level FlightAware Transoceanic
09:34AM 2.9822 143.7687 356° North 472 543 36,000  Level FlightAware Transoceanic
09:34AM 3.1000 143.7667 356° North 470 541 36,000  Level Oakland Oceanic (ODAPS)
09:35AM 3.1167 143.7586 356° North 472 543 36,000  Level FlightAware Transoceanic
09:36AM 3.2512 143.7485 356° North 472 543 36,000  Level FlightAware Transoceanic
09:37AM 3.3857 143.7384 356° North 472 543 36,000  Level FlightAware Transoceanic
09:38AM 3.5203 143.7282 356° North 472 543 36,000  Level FlightAware Transoceanic
09:39AM 3.6548 143.7181 356° North 472 543 36,000  Level FlightAware Transoceanic
09:40AM 3.7893 143.7080 356° North 472 543 36,000  Level FlightAware Transoceanic
09:41AM 3.9143 143.7025 355° North 470 541 36,000  Level FlightAware Transoceanic
09:42AM 4.0500 143.6918 355° North 470 541 36,000  Level FlightAware Transoceanic
09:43AM 4.1857 143.6810 355° North 470 541 36,000  Level FlightAware Transoceanic
09:44AM 4.3214 143.6703 355° North 470 541 36,000  Level FlightAware Transoceanic
09:45AM 4.4571 143.6596 355° North 470 541 36,000  Level FlightAware Transoceanic
09:46AM 4.5929 143.6489 355° North 470 541 36,000  Level FlightAware Transoceanic
09:47AM 4.7286 143.6381 355° North 470 541 36,000  Level FlightAware Transoceanic
09:48AM 4.8643 143.6274 355° North 470 541 36,000 1,080 Level FlightAware Transoceanic
09:48AM 4.9500 143.6167 360° North 476 548 38,000  Climbing Oakland Oceanic (ODAPS)
09:49AM 5.0000 143.6167 351° North 470 541 36,000 -1,680 Descending FlightAware Transoceanic
09:50AM 5.1357 143.5951 351° North 470 541 36,000  Level FlightAware Transoceanic
09:51AM 5.2713 143.5736 351° North 470 541 36,000  Level FlightAware Transoceanic
09:52AM 5.4070 143.5520 351° North 470 541 36,000  Level FlightAware Transoceanic
09:53AM 5.5427 143.5304 351° North 470 541 36,000 960 Level FlightAware Transoceanic
09:54AM 5.6783 143.5088 351° North 476 548 38,000 960 Climbing FlightAware Transoceanic
09:55AM 5.8140 143.4872 351° North 476 548 38,000  Level FlightAware Transoceanic
09:56AM 5.9496 143.4656 351° North 476 548 38,000  Level FlightAware Transoceanic
09:57AM 6.0853 143.4440 351° North 476 548 38,000  Level FlightAware Transoceanic
09:58AM 6.2210 143.4224 351° North 476 548 38,000  Level FlightAware Transoceanic
09:59AM 6.3566 143.4007 351° North 476 548 38,000  Level FlightAware Transoceanic
10:00AM 6.4923 143.3791 351° North 476 548 38,000  Level FlightAware Transoceanic
10:01AM 6.6279 143.3574 351° North 476 548 38,000  Level FlightAware Transoceanic
10:02AM 6.7636 143.3358 351° North 476 548 38,000  Level FlightAware Transoceanic
10:02AM 6.7667 143.3333 351° North 479 551 38,000  Level Oakland Oceanic (ODAPS)
10:03AM 6.8992 143.3141 351° North 476 548 38,000  Level FlightAware Transoceanic
10:04AM 7.0349 143.2924 351° North 476 548 38,000  Level FlightAware Transoceanic
10:05AM 7.1705 143.2706 351° North 476 548 38,000  Level FlightAware Transoceanic
10:06AM 7.3062 143.2489 351° North 476 548 38,000  Level FlightAware Transoceanic
10:07AM 7.4418 143.2272 351° North 476 548 38,000  Level FlightAware Transoceanic
10:08AM 7.5459 143.2091 351° North 479 551 38,000  Level FlightAware Transoceanic
10:09AM 7.6758 143.1883 351° North 479 551 38,000  Level FlightAware Transoceanic
10:10AM 7.8056 143.1675 351° North 479 551 38,000  Level FlightAware Transoceanic
10:11AM 7.9355 143.1467 351° North 479 551 38,000  Level FlightAware Transoceanic
10:12AM 8.0653 143.1260 351° North 479 551 38,000  Level FlightAware Transoceanic
10:13AM 8.1952 143.1051 351° North 479 551 38,000  Level FlightAware Transoceanic
10:14AM 8.3251 143.0843 351° North 479 551 38,000  Level FlightAware Transoceanic
10:15AM 8.4549 143.0635 351° North 479 551 38,000  Level FlightAware Transoceanic
10:16AM 8.5848 143.0426 351° North 479 551 38,000  Level FlightAware Transoceanic
10:16AM 8.5667 143.0500 351° North 478 550 38,000  Level Oakland Oceanic (ODAPS)
10:17AM 8.7147 143.0218 351° North 479 551 38,000  Level FlightAware Transoceanic
10:18AM 8.8445 143.0009 351° North 479 551 38,000  Level FlightAware Transoceanic
10:19AM 8.9744 142.9800 351° North 479 551 38,000  Level FlightAware Transoceanic
10:20AM 9.1042 142.9591 351° North 479 551 38,000  Level FlightAware Transoceanic
10:21AM 9.2341 142.9382 351° North 479 551 38,000  Level FlightAware Transoceanic
10:22AM 9.2849 142.9320 351° North 478 550 38,000  Level FlightAware Transoceanic
10:23AM 9.4046 142.9123 351° North 478 550 38,000  Level FlightAware Transoceanic
10:24AM 9.5243 142.8926 351° North 478 550 38,000  Level FlightAware Transoceanic
10:25AM 9.6440 142.8728 351° North 478 550 38,000  Level FlightAware Transoceanic
10:26AM 9.7636 142.8531 351° North 478 550 38,000  Level FlightAware Transoceanic
10:27AM 9.8833 142.8333 356° North 478 550 38,000  Level FlightAware Transoceanic
10:27AM 9.9667 142.8500 356° North 500 575 38,000  Level Guam Center
10:28AM 10.0225 142.8246 356° North 478 550 38,000  Level FlightAware Transoceanic
10:28AM 10.0833 142.8333 352° North 470 541 38,000  Level Guam Center
10:29AM 10.1618 142.8158 356° North 478 550 38,000  Level FlightAware Transoceanic
10:29AM 10.2167 142.8167 353° North 460 529 38,000  Level Guam Center
10:30AM 10.3010 142.8070 356° North 478 550 38,000  Level FlightAware Transoceanic
10:30AM 10.3500 142.8000 353° North 470 541 38,000  Level Guam Center
10:31AM 10.4402 142.7982 356° North 478 550 38,000  Level FlightAware Transoceanic
10:31AM 10.4833 142.8000 360° North 460 529 38,000  Level Guam Center
10:32AM 10.5794 142.7895 356° North 478 550 38,000 -120 Level FlightAware Transoceanic
10:32AM 10.6000 142.7833 352° North 460 529 37,900 240 Descending Guam Center
10:33AM 10.7333 142.7667 353° North 450 518 38,300 780 Climbing Guam Center
10:34AM 10.8500 142.7500 352° North 460 529 39,500 840 Climbing Guam Center
10:35AM 10.9833 142.7333 353° North 460 529 40,000 240 Climbing Guam Center
10:36AM 11.1167 142.7333 360° North 460 529 40,000  Level Guam Center
10:37AM 11.2500 142.7167 353° North 470 541 40,000  Level Guam Center
10:38AM 11.3833 142.7000 353° North 470 541 40,000  Level Guam Center
10:39AM 11.5000 142.6833 352° North 470 541 40,000  Level Guam Center
10:40AM 11.6333 142.6667 353° North 480 552 40,000  Level Guam Center
10:41AM 11.7667 142.6500 353° North 480 552 40,000  Level Guam Center
10:42AM 11.9000 142.6500 360° North 480 552 40,000  Level Guam Center
10:43AM 12.0333 142.6333 353° North 480 552 40,000  Level Guam Center
10:44AM 12.1667 142.6167 353° North 470 541 40,000  Level Guam Center
10:45AM 12.3000 142.6000 353° North 470 541 40,000  Level Guam Center
10:46AM 12.4333 142.6000 360° North 470 541 40,000  Level Guam Center
10:47AM 12.5667 142.5833 353° North 480 552 40,000  Level Guam Center
10:48AM 12.6833 142.5667 352° North 470 541 40,000  Level Guam Center
10:49AM 12.8167 142.5500 353° North 480 552 40,000  Level Guam Center
10:50AM 12.9500 142.5333 353° North 480 552 40,000  Level Guam Center
10:51AM 13.0833 142.5167 353° North 480 552 40,000  Level Guam Center
10:52AM 13.2167 142.5167 360° North 470 541 40,000  Level Guam Center
10:53AM 13.3500 142.5000 353° North 480 552 40,000  Level Guam Center
10:54AM 13.4833 142.4833 353° North 480 552 40,000  Level Guam Center
10:55AM 13.6167 142.4667 353° North 470 541 40,000  Level Guam Center
10:56AM 13.7500 142.4500 353° North 470 541 40,000  Level Guam Center
10:57AM 13.8833 142.4500 360° North 470 541 40,000  Level Guam Center
10:58AM 14.0167 142.4333 353° North 470 541 40,000  Level Guam Center
10:59AM 14.1333 142.4167 352° North 470 541 40,000  Level Guam Center
11:00AM 14.2667 142.4000 353° North 460 529 40,000  Level Guam Center
11:01AM 14.4000 142.3833 353° North 470 541 40,000  Level Guam Center
11:02AM 14.5333 142.3833 360° North 470 541 40,000  Level Guam Center
11:03AM 14.6500 142.3667 352° North 460 529 40,000  Level Guam Center
11:04AM 14.7833 142.3500 353° North 450 518 40,000  Level Guam Center
11:05AM 14.9167 142.3333 353° North 470 541 40,000  Level Guam Center
11:06AM 15.0333 142.3167 352° North 460 529 40,000  Level Guam Center
11:07AM 15.1667 142.3167 360° North 460 529 40,000  Level Guam Center
11:08AM 15.2833 142.3000 352° North 450 518 40,000  Level Guam Center
11:09AM 15.4167 142.2833 353° North 450 518 40,000  Level Guam Center
11:10AM 15.5333 142.2667 352° North 460 529 40,000  Level Guam Center
11:11AM 15.6667 142.2667 360° North 460 529 40,000  Level Guam Center
11:12AM 15.8000 142.2500 353° North 460 529 40,000  Level Guam Center
11:13AM 15.9167 142.2333 352° North 450 518 40,000  Level Guam Center
11:14AM 16.0500 142.2167 353° North 460 529 40,000  Level Guam Center
11:15AM 16.1667 142.2000 352° North 460 529 40,000  Level Guam Center
11:16AM 16.3000 142.2000 360° North 450 518 40,000  Level Guam Center
11:17AM 16.4167 142.1833 352° North 450 518 40,000  Level Guam Center
11:18AM 16.5500 142.1667 353° North 450 518 40,000  Level Guam Center
11:19AM 16.6667 142.1500 352° North 450 518 40,000  Level Guam Center
11:22AM 16.8897 142.1075 341° North  Level FlightAware Approximate
11:22AM 17.1333 142.0333 341° North 461 531 40,000  Level Oakland Oceanic (ODAPS)
11:29AM 17.8591 141.7695 341° North 461 531 40,000  Level FlightAware Transoceanic
11:29AM 17.7500 141.8000 341° North 463 533 40,000  Level Oakland Oceanic (ODAPS)
11:30AM 17.9801 141.7254 341° North 461 531 40,000  Level FlightAware Transoceanic
11:31AM 18.1010 141.6811 341° North 461 531 40,000  Level FlightAware Transoceanic
11:32AM 18.2219 141.6368 341° North 461 531 40,000  Level FlightAware Transoceanic
11:33AM 18.3428 141.5925 341° North 461 531 40,000  Level FlightAware Transoceanic
11:34AM 18.4637 141.5481 341° North 461 531 40,000  Level FlightAware Transoceanic
11:35AM 18.6258 141.4816 341° North 463 533 40,000  Level FlightAware Transoceanic
11:36AM 18.7508 141.4358 341° North 463 533 40,000  Level FlightAware Transoceanic
11:37AM 18.8759 141.3900 341° North 463 533 40,000  Level FlightAware Transoceanic
11:38AM 19.0009 141.3441 341° North 463 533 40,000  Level FlightAware Transoceanic
11:39AM 19.1259 141.2981 341° North 463 533 40,000  Level FlightAware Transoceanic
11:40AM 19.2510 141.2521 341° North 463 533 40,000  Level FlightAware Transoceanic
11:41AM 19.3760 141.2060 341° North 463 533 40,000  Level FlightAware Transoceanic
11:41AM 19.4333 141.1833 341° North 463 533 40,000  Level Oakland Oceanic (ODAPS)
11:42AM 19.5010 141.1598 341° North 463 533 40,000  Level FlightAware Transoceanic
11:43AM 19.6260 141.1136 341° North 463 533 40,000  Level FlightAware Transoceanic
11:44AM 19.7509 141.0672 341° North 463 533 40,000  Level FlightAware Transoceanic
11:45AM 19.8759 141.0209 341° North 463 533 40,000  Level FlightAware Transoceanic
11:46AM 20.0009 140.9744 341° North 463 533 40,000  Level FlightAware Transoceanic
11:47AM 20.1258 140.9279 341° North 463 533 40,000  Level FlightAware Transoceanic
11:48AM 20.1567 140.9156 341° North 463 533 40,000  Level FlightAware Transoceanic
11:49AM 20.2772 140.8707 341° North 463 533 40,000  Level FlightAware Transoceanic
11:50AM 20.3977 140.8257 341° North 463 533 40,000  Level FlightAware Transoceanic
11:51AM 20.5182 140.7807 341° North 463 533 40,000  Level FlightAware Transoceanic
11:52AM 20.6386 140.7357 341° North 463 533 40,000  Level FlightAware Transoceanic
11:53AM 20.7591 140.6905 341° North 463 533 40,000  Level FlightAware Transoceanic
11:54AM 20.8796 140.6453 341° North 463 533 40,000  Level FlightAware Transoceanic
11:55AM 21.0000 140.6000 342° North 463 533 40,000  Level FlightAware Transoceanic
11:56AM 21.1292 140.5550 342° North 463 533 40,000  Level FlightAware Transoceanic
11:57AM 21.2584 140.5100 342° North 463 533 40,000  Level FlightAware Transoceanic
11:58AM 21.3876 140.4649 342° North 463 533 40,000  Level FlightAware Transoceanic
11:59AM 21.5168 140.4197 342° North 463 533 40,000  Level FlightAware Transoceanic
12:00PM 21.6460 140.3744 342° North 463 533 40,000  Level FlightAware Transoceanic
12:01PM 21.7752 140.3291 342° North 463 533 40,000  Level FlightAware Transoceanic
12:02PM 21.9043 140.2836 342° North 463 533 40,000  Level FlightAware Transoceanic
12:03PM 22.0335 140.2381 342° North 463 533 40,000  Level FlightAware Transoceanic
12:04PM 22.1626 140.1925 342° North 463 533 40,000  Level FlightAware Transoceanic
12:05PM 22.2917 140.1468 342° North 463 533 40,000  Level FlightAware Transoceanic
12:06PM 22.4208 140.1010 342° North 463 533 40,000  Level FlightAware Transoceanic
12:07PM 22.5499 140.0551 342° North 463 533 40,000  Level FlightAware Transoceanic
12:08PM 22.6790 140.0092 342° North 463 533 40,000  Level FlightAware Transoceanic
12:09PM 22.8080 139.9632 342° North 463 533 40,000  Level FlightAware Transoceanic
12:10PM 22.9371 139.9171 342° North 463 533 40,000  Level FlightAware Transoceanic
12:11PM 23.0661 139.8708 342° North 463 533 40,000  Level FlightAware Transoceanic
12:12PM 23.1952 139.8246 342° North 463 533 40,000  Level FlightAware Transoceanic
12:13PM 23.3242 139.7782 342° North 463 533 40,000  Level FlightAware Transoceanic
12:14PM 23.4532 139.7317 342° North 463 533 40,000  Level FlightAware Transoceanic
12:15PM 23.5821 139.6851 342° North 463 533 40,000  Level FlightAware Transoceanic
12:16PM 23.7111 139.6385 342° North 463 533 40,000  Level FlightAware Transoceanic
12:17PM 23.8401 139.5917 342° North 463 533 40,000  Level FlightAware Transoceanic
12:18PM 23.9690 139.5449 342° North 463 533 40,000  Level FlightAware Transoceanic
12:19PM 24.0979 139.4979 342° North 463 533 40,000  Level FlightAware Transoceanic
12:20PM 24.2268 139.4509 342° North 463 533 40,000  Level FlightAware Transoceanic
12:21PM 24.3557 139.4038 342° North 463 533 40,000  Level FlightAware Transoceanic
12:22PM 24.4846 139.3565 342° North 463 533 40,000  Level FlightAware Transoceanic
12:23PM 24.6135 139.3092 342° North 463 533 40,000  Level FlightAware Transoceanic
12:24PM 24.7423 139.2618 342° North 463 533 40,000  Level FlightAware Transoceanic
12:25PM 24.8712 139.2143 341° North 463 533 40,000  Level FlightAware Transoceanic
12:26PM 24.9888 139.1556 336° Northwest  Level FlightAware Approximate
12:27PM 25.1064 139.0968 336° Northwest  Level FlightAware Approximate
12:28PM 25.1051 139.1116 342° North  Level FlightAware Approximate
12:29PM 25.2276 139.0667 342° North  Level FlightAware Approximate
12:30PM 25.3502 139.0218 342° North  Level FlightAware Approximate
12:31PM 25.4727 138.9767 342° North  Level FlightAware Approximate
12:32PM 25.5952 138.9316 342° North  Level FlightAware Approximate
12:33PM 25.7177 138.8864 342° North  Level FlightAware Approximate
12:34PM 25.8402 138.8410 342° North  Level FlightAware Approximate
12:35PM 25.9626 138.7956 342° North  Level FlightAware Approximate
12:36PM 26.0851 138.7501 342° North  Level FlightAware Approximate
12:37PM 26.2075 138.7045 342° North  Level FlightAware Approximate
12:38PM 26.3299 138.6588 342° North  Level FlightAware Approximate
12:39PM 26.4523 138.6130 341° North  Level FlightAware Approximate
12:40PM 26.5747 138.5671 341° North  Level FlightAware Approximate
12:41PM 26.6971 138.5211 341° North  Level FlightAware Approximate
12:42PM 26.8194 138.4751 341° North  Level FlightAware Approximate
12:43PM 26.9418 138.4289 341° North  Level FlightAware Approximate
12:44PM 27.0641 138.3826 341° North  Level FlightAware Approximate
12:45PM 27.1864 138.3361 341° North  Level FlightAware Approximate
12:46PM 27.3087 138.2895 341° North  Level FlightAware Approximate
12:47PM 27.4309 138.2427 341° North  Level FlightAware Approximate
12:48PM 27.5531 138.1959 341° North  Level FlightAware Approximate
12:49PM 27.6753 138.1489 341° North  Level FlightAware Approximate
12:50PM 27.7975 138.1018 341° North  Level FlightAware Approximate
12:51PM 27.9197 138.0547 341° North  Level FlightAware Approximate
12:52PM 28.0418 138.0074 341° North  Level FlightAware Approximate
12:53PM 28.1640 137.9600 341° North  Level FlightAware Approximate
12:54PM 28.2861 137.9125 341° North  Level FlightAware Approximate
12:55PM 28.4082 137.8649 341° North  Level FlightAware Approximate
12:56PM 28.5303 137.8172 341° North  Level FlightAware Approximate
12:57PM 28.6524 137.7693 341° North  Level FlightAware Approximate
12:58PM 28.7744 137.7214 341° North  Level FlightAware Approximate
12:59PM 28.8965 137.6734 341° North  Level FlightAware Approximate
01:00PM 29.0185 137.6252 341° North  Level FlightAware Approximate
01:01PM 29.1405 137.5769 341° North  Level FlightAware Approximate
01:02PM 29.2625 137.5285 341° North  Level FlightAware Approximate
01:03PM 29.3845 137.4800 341° North  Level FlightAware Approximate
01:04PM 29.5064 137.4314 341° North  Level FlightAware Approximate
01:05PM 29.6284 137.3827 341° North  Level FlightAware Approximate
01:06PM 29.7503 137.3338 341° North  Level FlightAware Approximate
01:07PM 29.8722 137.2848 341° North  Level FlightAware Approximate
01:08PM 29.9941 137.2357 341° North  Level FlightAware Approximate
01:09PM 30.1150 137.1837 340° North  Level FlightAware Approximate
01:10PM 30.2360 137.1314 340° North  Level FlightAware Approximate
01:11PM 30.3568 137.0789 339° North  Level FlightAware Approximate
01:12PM 30.4777 137.0264 339° North  Level FlightAware Approximate
01:13PM 30.5996 136.9772 341° North  Level FlightAware Approximate
01:14PM 30.7218 136.9286 341° North  Level FlightAware Approximate
01:15PM 30.8439 136.8800 341° North  Level FlightAware Approximate
01:16PM 30.9661 136.8312 341° North  Level FlightAware Approximate
01:17PM 31.0882 136.7823 341° North  Level FlightAware Approximate
01:18PM 31.2102 136.7332 341° North  Level FlightAware Approximate
01:19PM 31.3323 136.6841 341° North  Level FlightAware Approximate
01:20PM 31.4540 136.6335 339° North  Level FlightAware Approximate
01:21PM 31.5747 136.5800 339° North  Level FlightAware Approximate
01:22PM 31.6955 136.5263 339° North  Level FlightAware Approximate
01:23PM 31.8162 136.4725 339° North  Level FlightAware Approximate
01:24PM 31.9378 136.4217 341° North  Level FlightAware Approximate
01:25PM 32.0601 136.3730 341° North  Level FlightAware Approximate
01:26PM 32.1824 136.3241 341° North  Level FlightAware Approximate
01:27PM 32.3047 136.2751 341° North  Level FlightAware Approximate
01:27PM 32.1630 136.3470 341° North 476 548 40,100  Level FlightAware
01:28PM 32.4269 136.2260 341° North  Level FlightAware Approximate
01:28PM 32.2270 136.3200 340° North 478 550 40,100  Level FlightAware
01:28PM 32.2930 136.2900 339° North 479 551 40,100  Level FlightAware
01:29PM 32.3570 136.2620 340° North 479 551 40,100 -120 Level FlightAware
01:29PM 32.4430 136.2280 342° North 482 555 40,000 -120 Descending FlightAware
01:30PM 32.5360 136.1880 340° North 482 555 40,000  Level FlightAware
01:31PM 32.6180 136.1440 336° Northwest 482 555 40,000  Level FlightAware
01:31PM 32.6660 136.0910 317° Northwest 474 545 40,000  Level FlightAware
01:32PM 32.6910 136.0480 305° West 468 539 40,000  Level FlightAware
01:32PM 32.7220 135.9690 295° West 466 536 40,000  Level FlightAware
01:33PM 32.7530 135.8850 294° West 466 536 40,000  Level FlightAware
01:33PM 32.7830 135.8040 294° West 466 536 40,000  Level FlightAware
01:34PM 32.8130 135.7220 294° West 465 535 40,000  Level FlightAware
01:35PM 32.8470 135.6300 294° West 467 537 40,000  Level FlightAware
01:35PM 32.8780 135.5450 293° West 470 541 40,000  Level FlightAware
01:36PM 32.9080 135.4620 293° West 479 551 40,000  Level FlightAware
01:36PM 32.9400 135.3760 294° West 489 563 40,000  Level FlightAware
01:37PM 32.9710 135.2900 293° West 487 560 40,000  Level FlightAware
01:38PM 33.0050 135.1960 293° West 485 558 40,000  Level FlightAware
01:38PM 33.0330 135.1190 293° West 486 559 40,000  Level FlightAware
01:39PM 33.0650 135.0320 294° West 487 560 40,000  Level FlightAware
01:39PM 33.0950 134.9470 293° West 487 560 40,000  Level FlightAware
01:40PM 33.1270 134.8590 293° West 487 560 40,000  Level FlightAware
01:40PM 33.1570 134.7740 293° West 486 559 40,000  Level FlightAware
01:41PM 33.1820 134.7040 293° West 488 562 40,000  Level FlightAware
01:41PM 33.2150 134.6120 293° West 489 563 40,000  Level FlightAware
01:42PM 33.2460 134.5250 293° West 490 564 40,000  Level FlightAware
01:43PM 33.2750 134.4440 293° West 490 564 40,000  Level FlightAware
01:43PM 33.3160 134.3270 293° West 491 565 40,000  Level FlightAware
01:44PM 33.3420 134.2530 293° West 491 565 40,000  Level FlightAware
01:44PM 33.3730 134.1640 293° West 491 565 40,000 60 Level FlightAware
01:45PM 33.4080 134.0640 293° West 490 564 40,100 60 Climbing FlightAware
01:46PM 33.4340 133.9900 293° West 488 562 40,100 -120 Level FlightAware
01:46PM 33.4690 133.8900 293° West 486 559 40,000 -120 Descending FlightAware
01:47PM 33.4990 133.8040 293° West 483 556 40,000  Level FlightAware
01:47PM 33.5240 133.7300 292° West 481 554 40,000  Level FlightAware
01:48PM 33.5540 133.6430 292° West 480 552 40,000  Level FlightAware
01:49PM 33.5790 133.5550 289° West 479 551 40,000  Level FlightAware
01:49PM 33.6040 133.4670 289° West 479 551 40,000  Level FlightAware
01:50PM 33.6320 133.3680 289° West 481 554 40,000  Level FlightAware
01:50PM 33.6570 133.2800 289° West 481 554 40,000  Level FlightAware
01:51PM 33.6790 133.2020 289° West 483 556 40,000  Level FlightAware
01:51PM 33.7020 133.1210 289° West 482 555 40,000 60 Level FlightAware
01:52PM 33.7280 133.0280 289° West 481 554 40,100 60 Climbing FlightAware
01:53PM 33.7530 132.9410 289° West 481 554 40,100  Level FlightAware
01:53PM 33.7780 132.8500 288° West 481 554 40,100  Level FlightAware
01:54PM 33.8000 132.7700 288° West 482 555 40,100 -120 Level FlightAware
01:54PM 33.8290 132.6660 289° West 482 555 40,000  Descending FlightAware
01:55PM 33.8540 132.5770 289° West 482 555 40,100 60 Climbing FlightAware
01:55PM 33.8750 132.5000 288° West 480 552 40,100 -120 Level FlightAware
01:56PM 33.9030 132.3990 288° West 479 551 40,000 -120 Descending FlightAware
01:57PM 33.9270 132.3100 288° West 478 550 40,000  Level FlightAware
01:57PM 33.9550 132.2080 288° West 481 554 40,000  Level FlightAware
01:58PM 33.9760 132.1320 288° West 480 552 40,000  Level FlightAware
01:59PM 34.0000 132.0440 288° West 482 555 40,000  Level FlightAware
01:59PM 34.0260 131.9480 288° West 482 555 40,000  Level FlightAware
02:00PM 34.0500 131.8570 288° West 481 554 40,000 60 Level FlightAware
02:00PM 34.0740 131.7680 288° West 480 552 40,100 60 Climbing FlightAware
02:01PM 34.0980 131.6800 288° West 478 550 40,100  Level FlightAware
02:01PM 34.1220 131.5910 288° West 476 548 40,100  Level FlightAware
02:02PM 34.1420 131.5160 288° West 475 547 40,100 -120 Level FlightAware
02:03PM 34.1680 131.4150 287° West 476 548 40,000 -120 Descending FlightAware
02:03PM 34.1880 131.3380 287° West 477 549 40,000  Level FlightAware
02:04PM 34.2150 131.2380 288° West 478 550 40,000  Level FlightAware
02:04PM 34.2390 131.1480 288° West 481 554 40,000  Level FlightAware
02:05PM 34.2620 131.0590 287° West 482 555 40,000 60 Level FlightAware
02:05PM 34.2820 130.9820 287° West 482 555 40,100 60 Climbing FlightAware
02:06PM 34.3050 130.8920 287° West 483 556 40,100  Level FlightAware
02:07PM 34.3320 130.7900 288° West 485 558 40,100 -120 Level FlightAware
02:07PM 34.3550 130.6990 287° West 486 559 40,000  Descending FlightAware
02:08PM 34.3800 130.6040 288° West 485 558 40,100 60 Climbing FlightAware
02:09PM 34.4000 130.5250 287° West 485 558 40,100  Level FlightAware
02:09PM 34.4230 130.4350 287° West 485 558 40,100 -120 Level FlightAware
02:10PM 34.4520 130.3230 287° West 482 555 40,000 -120 Descending FlightAware
02:10PM 34.4780 130.2190 287° West 483 556 40,000  Level FlightAware
02:11PM 34.4910 130.1680 287° West 484 557 40,000  Level FlightAware
02:12PM 34.5220 130.0460 287° West 483 556 40,000  Level FlightAware
02:12PM 34.5470 129.9450 287° West 482 555 40,000  Level FlightAware
02:13PM 34.5700 129.8520 287° West 482 555 40,000  Level FlightAware
02:13PM 34.5980 129.7410 287° West 480 552 40,000  Level FlightAware
02:14PM 34.6200 129.6510 287° West 480 552 40,000  Level FlightAware
02:15PM 34.6490 129.5340 287° West 479 551 40,000  Level FlightAware
02:15PM 34.6680 129.4560 287° West 479 551 40,000 60 Level FlightAware
02:16PM 34.7000 129.3550 291° West 483 556 40,100  Climbing FlightAware
02:17PM 34.7440 129.2790 305° West 487 560 40,000 -120 Descending FlightAware
02:17PM 34.7950 129.2230 318° Northwest 485 558 40,000  Level FlightAware
02:18PM 34.8630 129.1740 329° Northwest 487 560 40,000  Level FlightAware
02:18PM 34.9380 129.1210 330° Northwest 486 559 40,000  Level FlightAware
02:19PM 35.0110 129.0700 330° Northwest 486 559 40,000  Level FlightAware
02:19PM 35.0680 129.0300 330° Northwest 485 558 40,000  Level FlightAware
02:20PM 35.1390 128.9820 331° Northwest 484 557 40,000  Level FlightAware
02:21PM 35.2050 128.9360 330° Northwest 484 557 40,000  Level FlightAware
02:21PM 35.2680 128.8890 329° Northwest 484 557 40,000  Level FlightAware
02:22PM 35.3290 128.8440 329° Northwest 484 557 40,000  Level FlightAware
02:22PM 35.3890 128.8000 329° Northwest 484 557 40,000  Level FlightAware
02:23PM 35.4480 128.7570 329° Northwest 484 557 40,000  Level FlightAware
02:24PM 35.5070 128.7130 329° Northwest 484 557 40,000  Level FlightAware
02:24PM 35.5650 128.6700 329° Northwest 484 557 40,000  Level FlightAware
02:25PM 35.6240 128.6270 329° Northwest 484 557 40,000  Level FlightAware
02:25PM 35.6830 128.5830 329° Northwest 484 557 40,000  Level FlightAware
02:26PM 35.7410 128.5400 329° Northwest 484 557 40,000  Level FlightAware
02:27PM 35.8020 128.4950 329° Northwest 484 557 40,000  Level FlightAware
02:27PM 35.8610 128.4510 329° Northwest 484 557 40,000  Level FlightAware
02:28PM 35.9190 128.4080 329° Northwest 484 557 40,000  Level FlightAware
02:28PM 35.9780 128.3640 329° Northwest 484 557 40,000  Level FlightAware
02:29PM 36.0580 128.3050 329° Northwest 484 557 40,000  Level FlightAware
02:30PM 36.1130 128.2640 329° Northwest 484 557 40,000  Level FlightAware
02:30PM 36.1740 128.2190 329° Northwest 484 557 40,000 -3,480 Level FlightAware
02:33PM 36.3571 127.9747 327° Northwest  Level Estimated
02:34PM 36.4240 127.8376 301° West  Level FlightAware Approximate
02:35PM 36.5132 127.7215 326° Northwest  Level Estimated
02:36PM 36.6179 127.6274 324° Northwest  Level FlightAware Approximate
02:37PM 36.7051 127.5087 324° Northwest  Level Estimated
02:37PM 36.9790 127.5830 324° Northwest 415 478 16,500  Level FlightAware
02:37PM 36.9850 127.5670 295° West 415 478 16,100 -4,920 Descending FlightAware
02:37PM 36.9920 127.5430 290° West 416 479 15,600 -3,300 Descending FlightAware
02:37PM 36.9940 127.5360 290° West 413 475 15,500 -1,800 Descending FlightAware
02:37PM 37.0010 127.5080 287° West 410 472 15,100 -1,800 Descending FlightAware
02:37PM 37.0030 127.5030 297° West 402 463 15,000 -3,000 Descending FlightAware
02:37PM 37.0100 127.4740 287° West 400 460 14,300 -3,600 Descending FlightAware
02:38PM 37.0170 127.4480 289° West 399 459 13,800 -2,280 Descending FlightAware
02:38PM 37.0180 127.4450 293° West 397 457 13,700 -2,340 Descending FlightAware
02:38PM 37.0230 127.4270 289° West 397 457 13,300 -720 Descending FlightAware
02:38PM 37.0360 127.3770 288° West 397 457 13,300  Level FlightAware
02:38PM 37.0420 127.3540 288° West 397 457 13,300  Level FlightAware
02:39PM 37.0480 127.3320 289° West 397 457 13,300 -10,620 Level FlightAware
02:39PM 37.0540 127.3090 288° West 379 436 11,000 -14,760 Descending FlightAware
02:39PM 37.0590 127.2890 287° West 376 433 10,600 -2,400 Descending FlightAware
02:39PM 37.0640 127.2700 288° West 374 430 10,200 -1,680 Descending FlightAware
02:39PM 37.0670 127.2610 293° West 371 427 10,100 -1,320 Descending FlightAware
02:39PM 37.0760 127.2270 288° West 371 427 9,800 -720 Descending FlightAware
02:40PM 37.0830 127.2020 289° West 365 420 9,800  Level FlightAware
02:40PM 37.0880 127.1830 288° West 352 405 9,800 -480 Level FlightAware
02:40PM 37.0910 127.1710 287° West 350 403 9,700 -1,200 Descending FlightAware
02:40PM 37.0950 127.1560 288° West 355 409 9,500 -1,620 Descending FlightAware
02:40PM 37.1020 127.1300 289° West 352 405 9,100 -2,820 Descending FlightAware
02:40PM 37.1100 127.0970 287° West 354 407 8,200 -3,600 Descending FlightAware
02:41PM 37.1130 127.0870 291° West 356 410 7,900 -3,300 Descending FlightAware
02:41PM 37.1150 127.0770 284° West 360 414 7,600 -1,320 Descending FlightAware
02:41PM 37.1340 127.0020 288° West 370 426 6,900 -1,980 Descending FlightAware
02:42PM 37.1460 126.9550 288° West 348 400 5,600 -1,620 Descending FlightAware
02:42PM 37.1600 126.8960 287° West 347 399 5,300 -240 Descending FlightAware
02:45PM 37.3483 126.6253 311° West  Level Estimated
02:45PM 37.2370 126.6060 311° West 4,800  Level FlightAware
02:45PM 37.2500 126.5540 287° West 343 395 4,800  Level FlightAware
02:48PM 37.4691 126.4505 339° North  Level Estimated
02:49PM 37.4691 126.4505 335° Northwest  Level Estimated
02:49PM 37.4640 126.2490 335° Northwest 4,800  Level FlightAware
02:50PM 37.5130 126.2070 326° Northwest 251 289 4,800  Level FlightAware
02:50PM 37.5310 126.1950 332° Northwest 235 270 4,800  Level FlightAware
02:50PM 37.5380 126.1950 360° North 228 262 4,800  Level FlightAware
02:51PM 37.5620 126.1940 358° North 228 262 4,800  Level FlightAware
02:53PM 37.4691 126.4505 114° Southeast  Level Estimated
02:54PM 37.4691 126.4505 335° Northwest  Level Estimated
02:55PM 37.4691 126.4505 335° Northwest  Level Estimated
02:56PM 37.4691 126.4505 335° Northwest  Level Estimated
02:57PM 37.4691 126.4505 335° Northwest  Level Estimated
02:58PM 37.4691 126.4505 335° Northwest  Level Estimated
02:59PM 37.4691 126.4505 335° Northwest  Level Estimated
03:00PM 37.4691 126.4505 335° Northwest  Level Estimated
03:01PM 37.4691 126.4505 335° Northwest  Level Estimated
03:02PM 37.4691 126.4505 335° Northwest  Level Estimated
03:03PM 37.4691 126.4505 335° Northwest  Level Estimated
03:04PM 37.4691 126.4505 335° Northwest  Level Estimated
03:05PM 37.4691 126.4505 335° Northwest  Level Estimated
03:06PM 37.4691 126.4505 335° Northwest  Level Estimated
03:07PM 37.4691 126.4505 335° Northwest  Level Estimated